Time;durP1;ratioP1;P1;durP2;ratioP2;P2;SDS_P1;SDS_P2;PMS_P1;PMS_P2;Temp;Humidity;BMP_temperature;BMP_pressure;BME280_temperature;BME280_humidity;BME280_pressure;Samples;Min_cycle;Max_cycle;Signal;HPM_P1;HPM_P2
2021/05/19 00:01:21;;;;;;;6.00;1.17;;;;;;;11.49;55.89;93729.41;5014732;28;20076;-72
2021/05/19 00:03:46;;;;;;;5.50;1.25;;;;;;;11.34;56.21;93728.84;5032428;28;20052;-72
2021/05/19 00:06:12;;;;;;;4.72;2.28;;;;;;;11.34;57.16;93726.19;5018254;28;20040;-72
2021/05/19 00:08:41;;;;;;;6.03;2.22;;;;;;;11.29;57.30;93726.34;4995051;28;20116;-72
2021/05/19 00:11:07;;;;;;;5.20;1.70;;;;;;;11.28;57.94;93722.13;5012352;28;20109;-71
2021/05/19 00:13:34;;;;;;;3.40;1.90;;;;;;;11.25;57.92;93722.75;5012595;28;20537;-72
2021/05/19 00:16:01;;;;;;;15.63;2.72;;;;;;;11.21;58.28;93724.50;5012051;28;20080;-72
2021/05/19 00:18:26;;;;;;;4.30;2.10;;;;;;;11.16;58.34;93722.03;4994542;28;20046;-71
2021/05/19 00:20:52;;;;;;;10.75;3.15;;;;;;;11.15;58.42;93734.56;5012072;28;20025;-71
2021/05/19 00:23:17;;;;;;;8.90;3.17;;;;;;;11.10;58.47;93724.06;5012132;28;20110;-71
2021/05/19 00:25:43;;;;;;;8.40;3.75;;;;;;;11.05;58.91;93721.56;4994629;28;20113;-71
2021/05/19 00:28:08;;;;;;;10.15;4.20;;;;;;;11.03;59.30;93731.78;5011797;28;20323;-71
2021/05/19 00:30:35;;;;;;;12.10;4.60;;;;;;;11.03;59.06;93724.56;5012304;28;20026;-72
2021/05/19 00:33:00;;;;;;;14.65;5.30;;;;;;;10.98;59.34;93724.72;5011783;28;20025;-71
2021/05/19 00:35:26;;;;;;;11.15;5.03;;;;;;;10.99;59.26;93720.19;4994380;28;20018;-72
2021/05/19 00:37:51;;;;;;;6.43;3.20;;;;;;;10.98;59.67;93727.41;4994415;28;20026;-72
2021/05/19 00:40:17;;;;;;;5.43;1.95;;;;;;;10.95;59.33;93727.25;5011654;28;20484;-72
2021/05/19 00:42:42;;;;;;;3.08;1.60;;;;;;;10.91;58.86;93726.31;4994224;28;20069;-72
2021/05/19 00:45:10;;;;;;;5.82;1.63;;;;;;;10.85;58.84;93725.72;4995913;28;20420;-71
2021/05/19 00:47:38;;;;;;;9.52;2.10;;;;;;;10.88;59.06;93722.41;5013819;28;20029;-72
2021/05/19 00:50:07;;;;;;;4.85;1.50;;;;;;;10.87;59.83;93723.53;5031556;28;20378;-72
2021/05/19 00:52:32;;;;;;;8.43;1.65;;;;;;;10.83;59.64;93723.38;5031370;28;20032;-72
2021/05/19 00:54:57;;;;;;;7.30;2.20;;;;;;;10.84;59.87;93721.47;5031685;28;20034;-72
2021/05/19 00:57:23;;;;;;;5.10;2.15;;;;;;;10.81;60.06;93730.13;5031261;28;20179;-72
2021/05/19 00:59:49;;;;;;;9.95;3.22;;;;;;;10.74;60.31;93721.81;5031722;28;20413;-72
2021/05/19 01:02:14;;;;;;;8.48;4.78;;;;;;;10.73;59.96;93721.03;5013371;28;20413;-72
2021/05/19 01:04:40;;;;;;;10.02;4.90;;;;;;;10.70;59.64;93712.88;5013424;28;20025;-72
2021/05/19 01:07:26;;;;;;;11.98;4.40;;;;;;;10.69;59.97;93712.13;5031366;28;20037;-72
2021/05/19 01:09:51;;;;;;;10.10;4.63;;;;;;;10.73;60.48;93717.59;5031185;28;20021;-72
2021/05/19 01:12:19;;;;;;;9.35;3.97;;;;;;;10.73;60.75;93725.59;5013167;28;20033;-72
2021/05/19 01:14:46;;;;;;;6.80;3.70;;;;;;;10.70;60.33;93715.56;5025103;28;20500;-72
2021/05/19 01:17:13;;;;;;;8.50;4.63;;;;;;;10.68;59.65;93715.09;4993530;28;20057;-72
2021/05/19 01:19:44;;;;;;;15.20;7.28;;;;;;;10.70;60.50;93713.66;5011152;28;20065;-72
2021/05/19 01:22:11;;;;;;;15.55;6.38;;;;;;;10.61;60.32;93711.03;5011252;28;20116;-72
2021/05/19 01:24:38;;;;;;;15.05;6.38;;;;;;;10.60;60.50;93719.31;5010947;28;20033;-72
2021/05/19 01:27:04;;;;;;;10.98;5.35;;;;;;;10.60;60.14;93714.81;5011244;28;20076;-72
2021/05/19 01:29:29;;;;;;;9.32;5.22;;;;;;;10.59;60.31;93725.78;5009646;28;20037;-72
2021/05/19 01:31:55;;;;;;;5.63;3.03;;;;;;;10.57;60.01;93730.63;5010788;28;20026;-72
2021/05/19 01:34:20;;;;;;;3.83;1.52;;;;;;;10.52;58.66;93722.78;5011030;28;20029;-72
2021/05/19 01:36:46;;;;;;;5.40;1.70;;;;;;;10.53;58.45;93714.50;5010774;28;20136;-72
2021/05/19 01:39:12;;;;;;;13.65;1.30;;;;;;;10.51;58.81;93715.91;4996661;28;20386;-72
2021/05/19 01:41:37;;;;;;;4.10;1.20;;;;;;;10.45;58.92;93731.25;5012167;28;20036;-72
2021/05/19 01:44:15;;;;;;;3.67;1.30;;;;;;;10.48;59.42;93727.19;5010887;28;20030;-72
2021/05/19 01:46:41;;;;;;;13.63;1.45;;;;;;;10.46;59.51;93716.81;4992892;28;20033;-72
2021/05/19 01:49:08;;;;;;;2.38;1.10;;;;;;;10.46;59.63;93722.16;5010451;28;20030;-72
2021/05/19 01:51:36;;;;;;;3.38;1.33;;;;;;;10.48;59.30;93719.97;5010557;28;20034;-72
2021/05/19 01:54:06;;;;;;;3.35;1.30;;;;;;;10.48;59.50;93727.97;4992877;28;20401;-72
2021/05/19 01:56:34;;;;;;;4.80;1.40;;;;;;;10.47;59.97;93731.72;4992536;28;20037;-71
2021/05/19 01:59:00;;;;;;;10.68;2.30;;;;;;;10.50;59.83;93731.13;5010582;28;20038;-72
2021/05/19 02:01:25;;;;;;;6.85;2.00;;;;;;;10.50;60.01;93728.47;4992891;28;20052;-72
2021/05/19 02:03:51;;;;;;;9.02;1.67;;;;;;;10.50;60.20;93725.78;5010333;28;20029;-72
2021/05/19 02:06:17;;;;;;;6.05;1.75;;;;;;;10.47;60.10;93721.06;4992965;28;20509;-72
2021/05/19 02:08:42;;;;;;;2.60;1.55;;;;;;;10.44;60.46;93727.03;4992635;28;20073;-72
2021/05/19 02:11:07;;;;;;;3.53;1.50;;;;;;;10.42;60.79;93719.38;5010448;28;20482;-71
2021/05/19 02:13:33;;;;;;;5.93;1.63;;;;;;;10.38;60.68;93717.63;5010254;28;20108;-72
2021/05/19 02:15:58;;;;;;;2.78;1.50;;;;;;;10.32;61.00;93716.22;5010203;28;20038;-72
2021/05/19 02:18:24;;;;;;;4.45;1.60;;;;;;;10.27;61.19;93708.38;5010168;28;20497;-72
2021/05/19 02:20:49;;;;;;;2.30;1.52;;;;;;;10.23;61.31;93711.66;5009877;28;20041;-72
2021/05/19 02:23:15;;;;;;;4.28;1.70;;;;;;;10.24;61.56;93715.13;4992674;28;20033;-72
2021/05/19 02:25:40;;;;;;;3.42;1.50;;;;;;;10.17;61.85;93704.91;4992473;28;20036;-72
2021/05/19 02:28:06;;;;;;;4.43;1.60;;;;;;;10.14;62.04;93702.88;5009932;28;20445;-72
2021/05/19 02:30:31;;;;;;;6.75;1.83;;;;;;;10.09;62.51;93711.03;4992520;28;20026;-72
2021/05/19 02:32:57;;;;;;;5.15;1.63;;;;;;;10.06;62.54;93711.66;5008610;28;20033;-72
2021/05/19 02:35:22;;;;;;;5.97;1.42;;;;;;;10.04;62.72;93705.88;4992555;28;20488;-71
2021/05/19 02:37:48;;;;;;;2.83;1.65;;;;;;;10.01;62.93;93699.28;5010052;28;20542;-72
2021/05/19 02:40:15;;;;;;;3.25;1.50;;;;;;;10.01;62.98;93698.50;4992329;28;20045;-71
2021/05/19 02:42:41;;;;;;;3.58;1.73;;;;;;;10.01;63.21;93695.81;5010094;28;20561;-71
2021/05/19 02:45:08;;;;;;;2.90;1.83;;;;;;;9.96;63.30;93680.78;4991989;28;20026;-72
2021/05/19 02:47:33;;;;;;;5.45;2.05;;;;;;;9.90;63.46;93675.94;5030012;28;20029;-71
2021/05/19 02:49:59;;;;;;;3.08;1.45;;;;;;;9.88;63.31;93672.81;5029586;28;20503;-71
2021/05/19 02:52:24;;;;;;;5.78;1.77;;;;;;;9.89;63.61;93675.16;5029598;28;20017;-71
2021/05/19 02:54:49;;;;;;;2.85;1.92;;;;;;;9.87;63.34;93676.56;5029639;28;20499;-71
2021/05/19 02:57:15;;;;;;;4.45;1.58;;;;;;;9.85;63.73;93682.22;5029544;28;20037;-71
2021/05/19 02:59:41;;;;;;;3.08;1.33;;;;;;;9.80;63.21;93680.47;5011935;28;20053;-72
2021/05/19 03:02:06;;;;;;;9.27;1.65;;;;;;;9.80;63.16;93683.13;5009438;28;20108;-72
2021/05/19 03:04:32;;;;;;;6.93;1.73;;;;;;;9.79;63.39;93691.41;4992198;28;20080;-71
2021/05/19 03:06:57;;;;;;;4.35;1.73;;;;;;;9.75;63.34;93695.78;5009887;28;20064;-72
2021/05/19 03:09:23;;;;;;;4.55;1.48;;;;;;;9.74;63.80;93705.66;4994475;28;20497;-72
2021/05/19 03:11:48;;;;;;;4.07;1.23;;;;;;;9.73;63.19;93714.75;5013840;28;20026;-72
2021/05/19 03:14:14;;;;;;;7.30;1.40;;;;;;;9.68;62.99;93717.56;5013358;28;20030;-72
2021/05/19 03:16:39;;;;;;;8.23;1.42;;;;;;;9.69;63.14;93708.50;5013377;28;20054;-72
2021/05/19 03:19:06;;;;;;;2.83;1.42;;;;;;;9.67;62.62;93721.31;5013473;28;20404;-72
2021/05/19 03:21:31;;;;;;;2.92;1.35;;;;;;;9.68;62.73;93717.56;4995669;28;20467;-72
2021/05/19 03:23:57;;;;;;;2.25;1.27;;;;;;;9.67;63.10;93716.00;5013622;28;20022;-72
2021/05/19 03:26:23;;;;;;;7.20;2.70;;;;;;;9.67;63.47;93713.34;5013289;28;20022;-72
2021/05/19 03:28:48;;;;;;;4.13;1.45;;;;;;;9.70;63.08;93718.03;4995664;28;20017;-71
2021/05/19 03:31:14;;;;;;;3.30;1.75;;;;;;;9.78;63.57;93709.28;4995454;28;20037;-72
2021/05/19 03:33:40;;;;;;;2.55;1.30;;;;;;;9.79;64.01;93710.84;5013052;28;20025;-72
2021/05/19 03:36:07;;;;;;;8.10;1.70;;;;;;;9.82;64.06;93712.88;4995729;28;20025;-72
2021/05/19 03:38:33;;;;;;;7.65;1.58;;;;;;;9.84;64.05;93709.91;4995206;28;20082;-72
2021/05/19 03:41:00;;;;;;;5.05;1.58;;;;;;;9.88;63.62;93710.09;5013366;28;20044;-71
2021/05/19 03:43:26;;;;;;;3.13;1.60;;;;;;;9.94;63.23;93714.94;5012978;28;20030;-72
2021/05/19 03:45:52;;;;;;;3.25;1.60;;;;;;;10.01;63.50;93714.47;5013081;28;20041;-72
2021/05/19 03:48:18;;;;;;;3.85;1.60;;;;;;;10.08;63.68;93720.13;4995262;28;20034;-72
2021/05/19 03:50:44;;;;;;;4.75;1.30;;;;;;;10.14;63.17;93713.53;4995399;28;20109;-72
2021/05/19 03:53:10;;;;;;;2.88;1.50;;;;;;;10.19;62.77;93710.72;5012847;28;20060;-72
2021/05/19 03:55:36;;;;;;;4.45;1.95;;;;;;;10.24;62.77;93712.44;5012738;28;20069;-72
2021/05/19 03:58:03;;;;;;;5.45;1.88;;;;;;;10.28;61.94;93704.59;4995306;28;20033;-72
2021/05/19 04:00:31;;;;;;;6.78;1.73;;;;;;;10.36;61.26;93709.97;5012799;28;20037;-72
2021/05/19 04:02:57;;;;;;;7.85;1.63;;;;;;;10.46;61.08;93702.72;5012736;28;20021;-72
2021/05/19 04:05:26;;;;;;;2.47;1.80;;;;;;;10.46;61.46;93703.50;5012594;28;20029;-72
2021/05/19 04:07:52;;;;;;;7.22;2.13;;;;;;;10.52;60.72;93704.13;5012542;28;20117;-72
2021/05/19 04:10:18;;;;;;;5.20;1.45;;;;;;;10.61;60.86;93711.03;4994957;28;20025;-72
2021/05/19 04:12:44;;;;;;;4.20;1.85;;;;;;;10.70;61.32;93708.34;5012282;28;20038;-72
2021/05/19 04:15:10;;;;;;;7.13;1.90;;;;;;;10.78;61.58;93704.09;5012475;28;20036;-73
2021/05/19 04:17:35;;;;;;;11.27;2.33;;;;;;;10.87;62.29;93704.06;5012164;28;20111;-72
2021/05/19 04:20:01;;;;;;;8.43;1.98;;;;;;;10.93;62.01;93710.78;5012002;28;20034;-72
2021/05/19 04:22:27;;;;;;;8.60;1.77;;;;;;;10.97;61.68;93711.72;4994743;28;20527;-72
2021/05/19 04:24:52;;;;;;;13.32;2.25;;;;;;;11.03;61.12;93700.56;5012093;28;20029;-73
2021/05/19 04:27:18;;;;;;;11.75;1.90;;;;;;;11.05;61.86;93713.56;5012227;28;20025;-72
2021/05/19 04:29:43;;;;;;;10.82;2.20;;;;;;;11.07;61.29;93710.59;4994915;28;20034;-72
2021/05/19 04:32:11;;;;;;;5.20;2.30;;;;;;;11.11;61.37;93711.53;4994419;28;20117;-72
2021/05/19 04:34:38;;;;;;;7.53;2.20;;;;;;;11.13;61.88;93717.31;5012148;28;20033;-72
2021/05/19 04:37:07;;;;;;;8.45;2.97;;;;;;;11.13;60.48;93725.31;5011863;28;20032;-72
2021/05/19 04:39:33;;;;;;;11.77;2.30;;;;;;;11.09;60.48;93733.16;5012001;28;20026;-72
2021/05/19 04:41:59;;;;;;;7.88;2.38;;;;;;;11.18;60.61;93733.16;5011903;28;20030;-72
2021/05/19 04:44:25;;;;;;;7.70;2.75;;;;;;;11.24;60.06;93732.66;4994518;28;20105;-72
2021/05/19 04:46:50;;;;;;;4.03;2.38;;;;;;;11.26;60.64;93721.66;5011805;28;20116;-72
2021/05/19 04:49:16;;;;;;;5.30;2.42;;;;;;;11.34;60.56;93720.84;4994129;28;20430;-72
2021/05/19 04:51:42;;;;;;;9.40;3.28;;;;;;;11.44;60.28;93709.03;4997300;28;20489;-71
2021/05/19 04:54:07;;;;;;;8.02;2.75;;;;;;;11.51;59.66;93706.63;5013269;28;20036;-71
2021/05/19 04:56:33;;;;;;;6.70;3.00;;;;;;;11.57;59.18;93704.56;5031569;28;20378;-71
2021/05/19 04:58:58;;;;;;;17.05;2.85;;;;;;;11.58;59.58;93701.59;5031541;28;20029;-71
2021/05/19 05:01:24;;;;;;;5.93;2.90;;;;;;;11.65;59.76;93709.84;5031147;28;20025;-71
2021/05/19 05:03:49;;;;;;;17.10;3.25;;;;;;;11.72;59.80;93703.22;5013457;28;20370;-71
2021/05/19 05:06:15;;;;;;;13.75;3.33;;;;;;;11.77;59.92;93690.47;5031077;28;20040;-72
2021/05/19 05:08:41;;;;;;;8.23;3.15;;;;;;;11.85;59.73;93700.31;5031746;28;20166;-72
2021/05/19 05:11:06;;;;;;;8.32;3.15;;;;;;;11.93;60.60;93687.28;5030960;28;20021;-72
2021/05/19 05:13:32;;;;;;;6.68;3.17;;;;;;;11.99;59.93;93686.75;5031047;28;20036;-72
2021/05/19 05:15:57;;;;;;;10.07;2.90;;;;;;;12.10;59.28;93689.81;5031415;28;20036;-71
2021/05/19 05:18:23;;;;;;;11.35;3.45;;;;;;;12.21;58.93;93693.66;5012954;28;20048;-71
2021/05/19 05:20:48;;;;;;;13.85;3.92;;;;;;;12.29;58.59;93688.56;5013007;28;20029;-71
2021/05/19 05:23:13;;;;;;;9.40;2.90;;;;;;;12.38;58.76;93682.03;5030745;28;20084;-71
2021/05/19 05:25:39;;;;;;;14.32;3.45;;;;;;;12.50;59.02;93693.88;5011628;28;20553;-71
2021/05/19 05:28:04;;;;;;;16.67;4.03;;;;;;;12.61;58.58;93703.03;5010986;28;20074;-71
2021/05/19 05:30:29;;;;;;;16.48;3.33;;;;;;;12.64;57.88;93705.84;5010558;28;20052;-71
2021/05/19 05:32:55;;;;;;;14.55;3.30;;;;;;;12.69;57.55;93706.75;4992592;28;20459;-72
2021/05/19 05:35:21;;;;;;;7.10;3.53;;;;;;;12.74;58.26;93715.38;5010793;28;20055;-72
2021/05/19 05:37:47;;;;;;;10.40;3.40;;;;;;;12.68;57.83;93710.53;5010942;28;20033;-71
2021/05/19 05:40:13;;;;;;;11.95;3.40;;;;;;;12.68;57.36;93711.31;5012435;28;20033;-72
2021/05/19 05:42:39;;;;;;;14.88;3.63;;;;;;;12.72;57.57;93716.78;5012737;28;20053;-72
2021/05/19 05:45:07;;;;;;;21.48;3.72;;;;;;;12.64;57.26;93729.13;5030476;28;20108;-72
2021/05/19 05:47:34;;;;;;;17.42;7.30;;;;;;;12.75;57.13;93726.84;5030119;28;20063;-71
2021/05/19 05:50:02;;;;;;;17.50;6.05;;;;;;;12.81;57.88;93714.81;5012669;28;20500;-71
2021/05/19 05:52:27;;;;;;;22.55;5.15;;;;;;;12.87;55.82;93721.53;5029044;28;20083;-72
2021/05/19 05:54:53;;;;;;;16.98;4.95;;;;;;;12.97;55.78;93713.06;5010297;28;20029;-72
2021/05/19 05:57:18;;;;;;;11.18;2.90;;;;;;;13.06;54.58;93707.63;4992709;28;20026;-71
2021/05/19 05:59:43;;;;;;;15.73;3.03;;;;;;;13.23;54.29;93714.69;4992759;28;20033;-71
2021/05/19 06:02:09;;;;;;;11.68;2.25;;;;;;;13.41;54.47;93707.25;5010094;28;20394;-72
2021/05/19 06:04:34;;;;;;;10.95;2.55;;;;;;;13.58;53.14;93704.34;5010604;28;20022;-71
2021/05/19 06:07:00;;;;;;;8.25;2.50;;;;;;;13.74;52.43;93701.78;5010316;28;20033;-72
2021/05/19 06:09:25;;;;;;;11.20;3.60;;;;;;;13.83;52.52;93701.66;4992499;28;20461;-72
2021/05/19 06:11:51;;;;;;;11.88;2.58;;;;;;;14.01;52.40;93710.22;5009720;28;20108;-72
2021/05/19 06:14:18;;;;;;;10.50;2.30;;;;;;;14.14;50.99;93708.28;5010005;28;20109;-72
2021/05/19 06:16:45;;;;;;;13.65;2.38;;;;;;;14.32;51.04;93708.81;4992341;28;20041;-72
2021/05/19 06:19:10;;;;;;;7.68;1.50;;;;;;;14.42;49.42;93708.34;5010158;28;20390;-72
2021/05/19 06:21:35;;;;;;;6.85;1.40;;;;;;;14.54;49.45;93700.25;5009859;28;20041;-71
2021/05/19 06:24:01;;;;;;;4.70;1.35;;;;;;;14.70;49.45;93691.50;5009909;28;20018;-71
2021/05/19 06:26:27;;;;;;;10.95;1.48;;;;;;;14.85;48.68;93693.44;4992573;28;20034;-72
2021/05/19 06:28:52;;;;;;;13.82;2.53;;;;;;;15.00;47.82;93691.88;5009798;28;20034;-72
2021/05/19 06:31:18;;;;;;;7.65;1.67;;;;;;;15.10;47.53;93695.97;5009975;28;20049;-72
2021/05/19 06:33:43;;;;;;;6.60;1.92;;;;;;;15.19;47.58;93686.63;4992260;28;20482;-72
2021/05/19 06:36:08;;;;;;;5.63;1.88;;;;;;;15.33;48.00;93686.19;5009608;28;20465;-72
2021/05/19 06:38:34;;;;;;;11.32;1.98;;;;;;;15.44;47.05;93683.75;5009848;28;20033;-73
2021/05/19 06:40:59;;;;;;;3.50;1.55;;;;;;;15.57;46.71;93689.81;4992189;28;20374;-72
2021/05/19 06:43:25;;;;;;;5.82;1.77;;;;;;;15.75;46.13;93688.38;5012812;28;20101;-72
2021/05/19 06:45:50;;;;;;;14.63;1.92;;;;;;;15.85;45.73;93684.34;5013948;28;20032;-72
2021/05/19 06:48:15;;;;;;;8.77;1.60;;;;;;;16.05;45.87;93682.47;4996216;28;20033;-72
2021/05/19 06:50:41;;;;;;;7.18;1.38;;;;;;;16.22;45.51;93683.97;5013952;28;20084;-72
2021/05/19 06:53:06;;;;;;;4.10;1.20;;;;;;;16.40;43.89;93678.97;5013751;28;20030;-72
2021/05/19 06:55:32;;;;;;;8.60;1.20;;;;;;;16.53;43.84;93677.69;5013894;28;20034;-72
2021/05/19 06:57:57;;;;;;;6.28;1.88;;;;;;;16.67;44.44;93669.13;5013930;28;20104;-73
2021/05/19 07:00:23;;;;;;;10.02;1.52;;;;;;;16.77;43.35;93670.44;4995862;28;20037;-75
2021/05/19 07:02:48;;;;;;;6.78;1.92;;;;;;;16.84;44.90;93662.53;4998892;28;20056;-73
2021/05/19 07:05:14;;;;;;;6.78;1.55;;;;;;;16.93;44.92;93663.06;5020041;28;20030;-72
2021/05/19 07:07:40;;;;;;;11.98;1.77;;;;;;;17.02;43.89;93652.88;5013524;28;20026;-74
2021/05/19 07:10:07;;;;;;;2.97;1.38;;;;;;;17.13;43.40;93655.72;4995654;28;20030;-74
2021/05/19 07:12:33;;;;;;;5.05;1.38;;;;;;;17.19;43.07;93662.38;5012996;28;20037;-74
2021/05/19 07:15:01;;;;;;;7.40;1.40;;;;;;;17.27;42.79;93657.91;5013682;28;20025;-74
2021/05/19 07:17:27;;;;;;;5.03;1.58;;;;;;;17.40;42.65;93672.75;5007517;28;20535;-75
2021/05/19 07:19:52;;;;;;;10.48;1.95;;;;;;;17.55;42.96;93656.81;4997903;28;20037;-75
2021/05/19 07:22:18;;;;;;;4.78;1.70;;;;;;;17.66;42.15;93655.03;4995524;28;20080;-75
2021/05/19 07:24:45;;;;;;;9.02;2.13;;;;;;;17.71;41.99;93649.34;4994044;28;20022;-75
2021/05/19 07:27:10;;;;;;;4.05;1.48;;;;;;;17.75;41.58;93634.00;4995418;28;20048;-74
2021/05/19 07:29:36;;;;;;;3.88;1.30;;;;;;;17.79;41.46;93637.53;4995227;28;20026;-75
2021/05/19 07:32:03;;;;;;;9.65;3.55;;;;;;;17.87;41.56;93627.66;5013107;28;20022;-76
2021/05/19 07:34:28;;;;;;;7.10;1.80;;;;;;;18.00;41.74;93628.19;5012675;28;20453;-72
2021/05/19 07:36:54;;;;;;;15.60;1.70;;;;;;;18.10;41.68;93619.47;5012868;28;20026;-75
2021/05/19 07:39:19;;;;;;;17.48;2.22;;;;;;;18.15;41.88;93605.66;4995572;28;20025;-75
2021/05/19 07:41:45;;;;;;;6.35;2.47;;;;;;;18.22;42.20;93605.75;5012507;28;20087;-75
2021/05/19 07:44:10;;;;;;;8.68;2.92;;;;;;;18.28;42.54;93594.63;4995204;28;20033;-74
2021/05/19 07:46:37;;;;;;;7.65;2.83;;;;;;;18.20;42.22;93589.16;5012423;28;20026;-73
2021/05/19 07:49:03;;;;;;;13.45;2.72;;;;;;;18.06;43.16;93604.38;4998276;28;20556;-74
2021/05/19 07:51:29;;;;;;;13.20;3.53;;;;;;;18.04;42.26;93608.22;4999032;28;20169;-73
2021/05/19 07:53:55;;;;;;;9.43;2.95;;;;;;;18.01;42.46;93597.38;4993826;28;20056;-75
2021/05/19 07:56:42;;;;;;;9.43;4.40;;;;;;;18.09;42.29;93593.63;4994751;28;20029;-73
2021/05/19 07:59:12;;;;;;;11.68;3.03;;;;;;;18.16;40.96;93593.72;4999340;28;20036;-74
2021/05/19 08:04:03;;;;;;;14.00;2.70;;;;;;;18.32;41.23;93579.25;5031564;28;20028;-74
2021/05/19 08:06:28;;;;;;;7.50;2.72;;;;;;;18.30;39.77;93581.53;5014617;28;20044;-75
2021/05/19 08:08:54;;;;;;;7.45;2.72;;;;;;;18.26;39.80;93573.41;5014360;28;20037;-75
2021/05/19 08:11:20;;;;;;;5.97;2.47;;;;;;;18.11;39.37;93574.38;4994656;28;20168;-74
2021/05/19 08:13:47;;;;;;;8.40;2.45;;;;;;;18.15;39.66;93584.06;5012498;28;20033;-73
2021/05/19 08:16:14;;;;;;;4.63;2.70;;;;;;;18.12;39.76;93576.72;4993965;28;20044;-76
2021/05/19 08:18:39;;;;;;;10.10;2.35;;;;;;;18.09;40.24;93593.63;5012153;28;20057;-74
2021/05/19 08:21:05;;;;;;;6.68;1.98;;;;;;;17.96;38.93;93586.94;5012177;28;20517;-73
2021/05/19 08:23:30;;;;;;;8.90;2.50;;;;;;;17.95;40.47;93596.16;5011916;28;20024;-72
2021/05/19 08:25:56;;;;;;;8.55;1.77;;;;;;;17.99;38.36;93597.75;4997095;28;20115;-72
2021/05/19 08:28:22;;;;;;;4.15;1.40;;;;;;;18.06;38.45;93590.91;4993936;28;20613;-74
2021/05/19 08:30:48;;;;;;;5.60;1.55;;;;;;;18.20;38.21;93583.00;4994057;28;20029;-72
2021/05/19 08:33:13;;;;;;;3.47;1.45;;;;;;;18.14;38.06;93579.06;5011576;28;20041;-72
2021/05/19 08:35:39;;;;;;;3.97;1.50;;;;;;;18.20;38.22;93577.59;5011621;28;20092;-72
2021/05/19 08:38:05;;;;;;;6.05;1.90;;;;;;;18.25;37.03;93563.75;5011887;28;20029;-73
2021/05/19 08:40:31;;;;;;;6.38;1.92;;;;;;;18.36;37.13;93558.47;4997299;28;20026;-75
2021/05/19 08:42:57;;;;;;;8.15;1.65;;;;;;;18.47;38.59;93564.00;5031775;28;20092;-74
2021/05/19 08:45:22;;;;;;;27.58;2.88;;;;;;;18.62;38.68;93563.78;5031849;28;20060;-74
2021/05/19 08:47:48;;;;;;;14.05;1.90;;;;;;;18.72;36.81;93558.84;5031459;28;20029;-73
2021/05/19 08:50:14;;;;;;;3.95;1.38;;;;;;;18.83;37.93;93567.84;5031291;28;20124;-74
2021/05/19 08:52:42;;;;;;;3.92;1.83;;;;;;;18.92;37.96;93564.84;5013113;28;20033;-74
2021/05/19 08:55:13;;;;;;;3.42;1.70;;;;;;;19.04;37.12;93554.53;5016909;28;20029;-74
2021/05/19 08:57:41;;;;;;;8.57;1.98;;;;;;;19.20;36.39;93550.78;5011614;28;20029;-74
2021/05/19 09:00:08;;;;;;;5.75;2.25;;;;;;;19.36;36.82;93558.63;5011226;28;20030;-74
2021/05/19 09:02:34;;;;;;;5.07;1.65;;;;;;;19.56;37.15;93573.44;5011183;28;20193;-75
2021/05/19 09:05:00;;;;;;;11.93;2.33;;;;;;;19.77;36.81;93561.22;5000494;28;20571;-74
2021/05/19 09:07:26;;;;;;;12.82;2.15;;;;;;;19.96;36.42;93557.44;5009988;28;20029;-75
2021/05/19 09:09:52;;;;;;;5.03;1.45;;;;;;;20.24;36.46;93554.06;5011162;28;20059;-74
2021/05/19 09:12:18;;;;;;;7.10;1.27;;;;;;;20.49;35.88;93558.78;5010940;28;20117;-75
2021/05/19 09:15:04;;;;;;;14.57;2.22;;;;;;;20.71;34.95;93549.56;4993024;28;20038;-75
2021/05/19 09:17:31;;;;;;;4.53;1.45;;;;;;;20.95;36.17;93552.72;5010789;28;20057;-74
2021/05/19 09:20:07;;;;;;;7.43;1.38;;;;;;;21.07;34.99;93551.56;5011003;28;20108;-75
2021/05/19 09:22:36;;;;;;;8.02;1.58;;;;;;;21.10;34.78;93550.78;4992863;28;20025;-77
2021/05/19 09:25:34;;;;;;;11.20;1.98;;;;;;;21.25;34.97;93544.19;5010931;28;20026;-76
2021/05/19 09:28:04;;;;;;;6.90;1.88;;;;;;;21.38;35.02;93539.91;4992950;28;20382;-76
2021/05/19 09:30:48;;;;;;;6.70;2.03;;;;;;;21.39;34.89;93536.06;4992762;28;20464;-76
2021/05/19 09:33:24;;;;;;;10.73;1.90;;;;;;;21.49;34.62;93547.28;5030058;28;20033;-77
2021/05/19 09:36:15;;;;;;;8.18;1.70;;;;;;;21.63;33.87;93537.19;4999255;28;20465;-77
2021/05/19 09:38:43;;;;;;;6.32;1.60;;;;;;;21.70;33.95;93541.84;5010470;28;20457;-77
2021/05/19 09:41:23;;;;;;;8.38;1.92;;;;;;;21.80;33.91;93532.88;5010528;28;20025;-76
2021/05/19 09:43:52;;;;;;;6.15;1.77;;;;;;;21.93;33.33;93535.19;5010299;28;20044;-77
2021/05/19 09:46:27;;;;;;;6.00;1.85;;;;;;;22.00;33.26;93532.41;5010513;28;20520;-77
2021/05/19 09:49:25;;;;;;;8.00;2.10;;;;;;;22.14;33.28;93528.88;4995982;28;20124;-76
2021/05/19 09:51:53;;;;;;;9.93;3.03;;;;;;;22.26;32.56;93522.28;4981272;28;20038;-75
2021/05/19 09:54:38;;;;;;;6.57;2.30;;;;;;;22.23;32.88;93532.75;4992586;28;20033;-76
2021/05/19 09:57:09;;;;;;;11.48;2.28;;;;;;;22.36;33.33;93524.16;5010130;28;20508;-75
2021/05/19 09:59:36;;;;;;;4.80;1.73;;;;;;;22.40;32.08;93519.47;4995720;28;20040;-75
2021/05/19 10:02:03;;;;;;;17.15;2.08;;;;;;;22.50;32.10;93524.06;5002431;28;20108;-75
2021/05/19 10:04:39;;;;;;;15.57;2.25;;;;;;;22.65;32.17;93530.19;5011851;28;20128;-77
2021/05/19 10:07:17;;;;;;;11.10;1.70;;;;;;;22.84;31.73;93515.34;4995156;28;20021;-72
2021/05/19 10:09:43;;;;;;;12.77;1.85;;;;;;;22.99;32.08;93511.31;5012195;28;20022;-74
2021/05/19 10:12:09;;;;;;;4.13;1.75;;;;;;;23.10;32.35;93505.06;5024734;28;20041;-74
2021/05/19 10:14:36;;;;;;;10.52;2.28;;;;;;;23.26;32.11;93502.56;4991694;28;20029;-73
2021/05/19 10:17:06;;;;;;;8.38;1.73;;;;;;;23.43;31.30;93501.66;5009072;28;20433;-74
2021/05/19 10:19:42;;;;;;;5.60;2.03;;;;;;;23.50;30.70;93492.63;5009672;28;20030;-73
2021/05/19 10:22:14;;;;;;;7.30;2.67;;;;;;;23.55;32.16;93486.78;4994805;28;20473;-74
2021/05/19 10:25:03;;;;;;;4.05;1.70;;;;;;;23.66;31.76;93483.94;5029163;28;20511;-74
2021/05/19 10:27:47;;;;;;;14.48;2.30;;;;;;;23.74;30.25;93474.50;5012257;28;20025;-74
2021/05/19 10:30:31;;;;;;;5.55;2.05;;;;;;;23.77;30.73;93464.78;5006217;28;20058;-74
2021/05/19 10:32:56;;;;;;;5.43;2.70;;;;;;;23.90;30.62;93465.81;4992516;28;20033;-74
2021/05/19 10:35:29;;;;;;;8.88;2.38;;;;;;;23.97;31.00;93462.22;4992172;28;20034;-73
2021/05/19 10:37:56;;;;;;;4.47;1.58;;;;;;;24.06;30.79;93453.53;4995627;28;20026;-73
2021/05/19 10:40:22;;;;;;;10.60;2.53;;;;;;;24.17;30.94;93454.94;5010722;28;20108;-73
2021/05/19 10:42:57;;;;;;;8.73;1.95;;;;;;;23.96;29.38;93447.09;5009452;28;20033;-72
2021/05/19 10:45:23;;;;;;;9.85;2.00;;;;;;;24.05;30.90;93441.91;5005728;28;20025;-72
2021/05/19 10:47:49;;;;;;;11.20;1.77;;;;;;;24.16;30.38;93434.38;5008876;28;20029;-72
2021/05/19 10:58:47;;;;;;;13.80;2.00;;;;;;;24.42;30.27;93421.94;5010634;28;20119;-73
2021/05/19 11:01:13;;;;;;;14.38;1.98;;;;;;;24.51;30.42;93407.81;5010298;28;20109;-73
2021/05/19 11:03:40;;;;;;;13.70;1.77;;;;;;;24.57;30.62;93413.59;5010442;28;20113;-73
2021/05/19 11:06:09;;;;;;;19.02;2.58;;;;;;;24.59;30.10;93420.16;4992585;28;20053;-69
2021/05/19 11:08:35;;;;;;;11.10;1.90;;;;;;;24.63;29.98;93429.03;5011605;28;20032;-71
2021/05/19 11:11:22;;;;;;;4.40;1.58;;;;;;;24.75;30.41;93418.72;5011243;28;20076;-70
2021/05/19 11:13:59;;;;;;;4.47;1.10;;;;;;;24.85;30.10;93409.59;5010809;28;20053;-69
2021/05/19 11:16:29;;;;;;;5.95;1.52;;;;;;;24.96;30.49;93410.22;5009762;28;20119;-70
2021/05/19 11:19:11;;;;;;;4.70;1.80;;;;;;;25.03;28.67;93404.66;5010968;28;20045;-68
2021/05/19 11:21:36;;;;;;;9.13;1.70;;;;;;;25.06;28.61;93396.81;5011121;28;20040;-69
2021/05/19 11:24:11;;;;;;;6.78;2.20;;;;;;;25.05;28.66;93392.53;5010905;28;20033;-69
2021/05/19 11:26:38;;;;;;;3.67;1.10;;;;;;;25.16;28.60;93398.59;5011069;28;20029;-69
2021/05/19 11:29:04;;;;;;;6.10;1.30;;;;;;;25.30;27.71;93390.16;4993315;28;20474;-70
2021/05/19 11:31:40;;;;;;;5.30;1.30;;;;;;;25.45;26.57;93389.91;5004587;28;20036;-70
2021/05/19 11:34:06;;;;;;;13.65;1.25;;;;;;;25.61;26.66;93387.22;5016918;28;20026;-70
2021/05/19 11:36:47;;;;;;;8.35;1.20;;;;;;;25.85;26.94;93363.34;5014289;28;20379;-70
2021/05/19 11:39:35;;;;;;;6.03;2.00;;;;;;;25.97;25.67;93372.84;5013991;28;20026;-69
2021/05/19 11:42:13;;;;;;;20.83;2.53;;;;;;;26.20;25.49;93367.28;5014388;28;20037;-69
2021/05/19 11:44:54;;;;;;;3.60;1.42;;;;;;;26.33;25.34;93361.16;5012945;28;20033;-69